createdAt,value
2018-04-02T00:04:45.150Z,2.50
2018-04-02T00:09:48.749Z,2.40
2018-04-02T00:14:52.362Z,2.10
2018-04-02T00:19:55.974Z,1.90
2018-04-02T00:24:59.263Z,1.90
2018-04-02T00:30:02.572Z,1.70
2018-04-02T00:35:06.249Z,1.50
2018-04-02T00:40:09.500Z,1.50
2018-04-02T00:45:12.876Z,1.50
2018-04-02T00:50:16.183Z,1.60
2018-04-02T00:55:19.973Z,1.70
2018-04-02T01:00:23.187Z,1.60
2018-04-02T01:05:26.502Z,1.60
2018-04-02T01:10:30.413Z,1.60
2018-04-02T01:15:34.229Z,1.60
2018-04-02T01:20:37.461Z,1.60
2018-04-02T01:25:41.092Z,1.50
2018-04-02T01:30:44.298Z,1.50
2018-04-02T01:35:47.519Z,1.30
2018-04-02T01:40:50.805Z,1.30
2018-04-02T01:45:54.025Z,1.30
2018-04-02T01:50:57.228Z,1.30
2018-04-02T01:56:00.447Z,1.40
2018-04-02T02:01:03.668Z,1.40
2018-04-02T02:06:06.921Z,1.20
2018-04-02T02:11:10.144Z,1.10
2018-04-02T02:16:13.560Z,1.10
2018-04-02T02:21:16.761Z,0.90
2018-04-02T02:26:20.006Z,0.90
2018-04-02T02:31:23.236Z,0.80
2018-04-02T02:36:26.845Z,0.80
2018-04-02T02:41:30.610Z,0.70
2018-04-02T02:46:33.846Z,0.70
2018-04-02T02:51:37.083Z,0.70
2018-04-02T02:56:40.789Z,0.80
2018-04-02T03:01:44.032Z,0.80
2018-04-02T03:06:47.247Z,0.80
2018-04-02T03:11:51.489Z,0.70
2018-04-02T03:16:54.697Z,0.80
2018-04-02T03:21:57.927Z,0.80
2018-04-02T03:27:01.146Z,0.70
2018-04-02T03:32:04.365Z,0.70
2018-04-02T03:37:07.965Z,0.40
2018-04-02T03:42:11.211Z,0.40
2018-04-02T03:47:14.428Z,0.30
2018-04-02T03:52:17.632Z,0.20
2018-04-02T03:57:20.868Z,0.30
2018-04-02T04:02:24.094Z,0.50
2018-04-02T04:07:27.300Z,0.60
2018-04-02T04:12:30.525Z,0.60
2018-04-02T04:17:34.134Z,0.60
2018-04-02T04:22:37.794Z,0.70
2018-04-02T04:27:41.032Z,0.70
2018-04-02T04:32:44.349Z,0.70
2018-04-02T04:37:47.965Z,0.50
2018-04-02T04:42:51.196Z,0.50
2018-04-02T04:47:54.409Z,0.30
2018-04-02T04:52:58.087Z,0.10
2018-04-02T04:58:01.290Z,0.10
2018-04-02T05:03:04.715Z,0.10
2018-04-02T05:08:08.348Z,0.00
2018-04-02T05:13:11.589Z,0.00
2018-04-02T05:18:14.797Z,0.10
2018-04-02T05:23:18.112Z,0.20
2018-04-02T05:28:21.446Z,0.30
2018-04-02T05:33:24.665Z,0.40
2018-04-02T05:38:28.370Z,0.70
2018-04-02T05:43:31.673Z,0.70
2018-04-02T05:48:34.874Z,0.90
2018-04-02T05:53:38.103Z,1.00
2018-04-02T05:58:41.726Z,1.30
2018-04-02T06:03:44.982Z,1.30
2018-04-02T06:08:48.246Z,1.50
2018-04-02T06:13:51.460Z,1.70
2018-04-02T06:18:54.689Z,1.80
2018-04-02T06:23:57.910Z,2.00
2018-04-02T06:29:01.135Z,2.20
2018-04-02T06:34:04.355Z,2.40
2018-04-02T06:39:08.018Z,2.90
2018-04-02T06:44:11.239Z,2.90
2018-04-02T06:49:14.467Z,3.20
2018-04-02T06:54:18.431Z,3.60
2018-04-02T06:59:21.667Z,3.90
2018-04-02T07:04:24.884Z,4.30
2018-04-02T07:09:28.216Z,4.60
2018-04-02T07:14:31.445Z,4.90
2018-04-02T07:19:34.659Z,5.30
2018-04-02T07:24:37.884Z,5.30
2018-04-02T07:29:41.111Z,5.40
2018-04-02T07:34:44.935Z,5.50
2018-04-02T07:39:48.361Z,5.70
2018-04-02T07:44:51.650Z,6.10
2018-04-02T07:49:54.890Z,6.00
2018-04-02T07:54:58.502Z,6.50
2018-04-02T08:00:02.118Z,6.50
2018-04-02T08:05:05.785Z,6.40
2018-04-02T08:10:08.997Z,6.40
2018-04-02T08:15:12.221Z,6.50
2018-04-02T08:20:15.467Z,6.60
2018-04-02T08:25:18.771Z,6.60
2018-04-02T08:30:21.988Z,6.40
2018-04-02T08:35:25.384Z,6.40
2018-04-02T08:40:31.206Z,6.30
2018-04-02T08:45:36.396Z,6.40
2018-04-02T08:50:40.095Z,6.50
2018-04-02T08:55:44.392Z,6.50
2018-04-02T09:00:47.852Z,6.40
2018-04-02T09:05:52.271Z,7.10
2018-04-02T09:10:59.665Z,7.40
2018-04-02T09:16:02.884Z,7.40
2018-04-02T09:21:06.488Z,8.30
2018-04-02T09:26:12.689Z,8.30
2018-04-02T09:31:16.016Z,8.80
2018-04-02T09:36:19.318Z,8.60
2018-04-02T09:41:22.546Z,8.60
2018-04-02T09:46:25.877Z,8.50
2018-04-02T09:51:29.160Z,8.60
2018-04-02T09:56:32.404Z,8.70
2018-04-02T10:01:35.671Z,9.00
2018-04-02T10:06:38.895Z,9.00
2018-04-02T10:11:42.132Z,9.10
2018-04-02T10:16:45.750Z,9.70
2018-04-02T10:21:49.406Z,9.70
2018-04-02T10:26:52.891Z,9.70
2018-04-02T10:31:56.482Z,9.50
2018-04-02T10:37:02.119Z,9.90
2018-04-02T10:42:05.672Z,10.30
2018-04-02T10:52:23.437Z,10.60
2018-04-02T10:57:26.678Z,10.90
2018-04-02T11:02:30.066Z,10.90
2018-04-02T11:07:33.314Z,10.70
2018-04-02T11:12:36.648Z,11.60
2018-04-02T11:17:39.929Z,11.90
2018-04-02T11:22:43.167Z,12.30
2018-04-02T11:27:46.400Z,12.80
2018-04-02T11:32:51.296Z,16.20
2018-04-02T11:37:54.541Z,16.10
2018-04-02T11:42:58.250Z,18.60
2018-04-02T11:48:01.971Z,20.30
2018-04-02T11:53:05.684Z,20.00
2018-04-02T11:58:09.054Z,20.00
2018-04-02T12:03:12.268Z,19.40
2018-04-02T12:08:15.490Z,20.40
2018-04-02T12:13:18.779Z,21.50
2018-04-02T12:18:22.238Z,21.00
2018-04-02T12:23:25.879Z,21.80
2018-04-02T12:28:29.228Z,21.80
2018-04-02T12:33:32.590Z,21.60
2018-04-02T12:38:35.949Z,22.20
2018-04-02T12:43:39.555Z,22.50
2018-04-02T12:48:43.398Z,21.50
2018-04-02T12:53:46.685Z,21.50
2018-04-02T12:58:49.909Z,20.90
2018-04-02T13:03:53.186Z,20.80
2018-04-02T13:08:56.764Z,21.60
2018-04-02T13:13:59.992Z,20.60
2018-04-02T13:19:03.275Z,21.20
2018-04-02T13:24:06.489Z,21.30
2018-04-02T13:29:09.769Z,19.20
2018-04-02T13:34:12.995Z,16.70
2018-04-02T13:39:16.223Z,16.10
2018-04-02T13:44:19.439Z,16.40
2018-04-02T13:49:23.028Z,17.10
2018-04-02T13:54:26.235Z,17.40
2018-04-02T13:59:29.471Z,17.20
2018-04-02T14:04:35.411Z,18.30
2018-04-02T14:09:39.256Z,17.80
2018-04-02T14:14:42.591Z,16.80
2018-04-02T14:19:45.862Z,17.60
2018-04-02T14:24:49.082Z,17.80
2018-04-02T14:29:52.413Z,17.60
2018-04-02T14:34:55.655Z,16.70
2018-04-02T14:39:59.625Z,16.10
2018-04-02T14:45:03.049Z,16.10
2018-04-02T14:50:07.231Z,15.80
2018-04-02T14:55:10.488Z,15.40
2018-04-02T15:00:14.142Z,14.60
2018-04-02T15:05:17.404Z,14.60
2018-04-02T15:10:20.708Z,14.40
2018-04-02T15:15:24.231Z,14.30
2018-04-02T15:20:27.940Z,14.50
2018-04-02T15:25:31.453Z,14.40
2018-04-02T15:30:34.688Z,14.00
2018-04-02T15:35:37.941Z,13.40
2018-04-02T15:40:41.239Z,12.90
2018-04-02T15:45:45.537Z,12.80
2018-04-02T15:50:48.844Z,13.00
2018-04-02T15:55:52.456Z,13.20
2018-04-02T16:00:55.868Z,13.20
2018-04-02T16:05:59.152Z,13.10
2018-04-02T16:11:02.817Z,13.20
2018-04-02T16:16:06.070Z,13.20
2018-04-02T16:21:09.768Z,13.20
2018-04-02T16:26:13.199Z,13.20
2018-04-02T16:31:16.493Z,13.00
2018-04-02T16:36:20.311Z,12.40
2018-04-02T16:41:24.018Z,12.20
2018-04-02T16:46:27.714Z,12.20
2018-04-02T16:51:31.044Z,12.20
2018-04-02T16:56:34.432Z,12.20
2018-04-02T17:01:38.092Z,12.10
2018-04-02T17:06:41.797Z,12.10
2018-04-02T17:11:45.151Z,12.10
2018-04-02T17:16:48.944Z,11.80
2018-04-02T17:21:52.279Z,11.80
2018-04-02T17:26:56.082Z,11.50
2018-04-02T17:32:00.182Z,11.30
2018-04-02T17:37:03.608Z,11.30
2018-04-02T17:42:07.036Z,11.20
2018-04-02T17:47:10.289Z,11.20
2018-04-02T17:52:13.628Z,11.10
2018-04-02T17:57:17.450Z,10.80
2018-04-02T18:02:21.142Z,10.80
2018-04-02T18:07:24.483Z,10.80
2018-04-02T18:12:27.790Z,10.80
2018-04-02T18:17:31.054Z,10.60
2018-04-02T18:22:34.453Z,10.50
2018-04-02T18:27:37.862Z,10.20
2018-04-02T18:32:42.660Z,10.00
2018-04-02T18:37:45.899Z,10.00
2018-04-02T18:42:49.777Z,9.90
2018-04-02T18:47:53.025Z,9.90
2018-04-02T18:52:56.700Z,9.80
2018-04-02T18:57:59.940Z,9.80
2018-04-02T19:03:03.608Z,9.40
2018-04-02T19:08:06.830Z,9.40
2018-04-02T19:13:10.119Z,9.40
2018-04-02T19:18:13.354Z,9.30
2018-04-02T19:23:17.081Z,9.30
2018-04-02T19:28:20.288Z,9.30
2018-04-02T19:33:23.525Z,9.30
2018-04-02T19:38:26.857Z,9.30
2018-04-02T19:43:32.597Z,9.40
2018-04-02T19:48:35.850Z,9.40
2018-04-02T19:53:39.422Z,9.50
2018-04-02T19:58:43.061Z,9.60
2018-04-02T20:03:46.346Z,9.60
2018-04-02T20:08:50.053Z,9.60
2018-04-02T20:13:53.680Z,9.70
2018-04-02T20:18:56.909Z,9.70
2018-04-02T20:24:00.171Z,9.60
2018-04-02T20:29:03.664Z,9.40
2018-04-02T20:34:06.968Z,9.20
2018-04-02T20:39:12.353Z,8.90
2018-04-02T20:44:18.591Z,8.90
2018-04-02T20:49:22.746Z,8.90
2018-04-02T20:54:26.901Z,8.70
2018-04-02T20:59:32.898Z,8.60
2018-04-02T21:04:38.862Z,8.40
2018-04-02T21:09:43.080Z,8.40
2018-04-02T21:14:49.523Z,8.40
2018-04-02T21:19:55.256Z,8.50
2018-04-02T21:25:00.089Z,8.40
2018-04-02T21:30:05.889Z,8.30
2018-04-02T21:35:09.850Z,8.10
2018-04-02T21:40:13.572Z,8.00
2018-04-02T21:45:16.912Z,8.00
2018-04-02T21:50:20.471Z,8.10
2018-04-02T21:55:23.697Z,8.30
2018-04-02T22:00:26.972Z,8.60
2018-04-02T22:05:30.618Z,9.30
2018-04-02T22:10:33.928Z,9.30
2018-04-02T22:15:37.351Z,9.20
2018-04-02T22:20:40.790Z,9.00
2018-04-02T22:25:44.049Z,8.70
2018-04-02T22:30:48.552Z,8.50
2018-04-02T22:35:51.836Z,8.40
2018-04-02T22:40:55.544Z,8.80
2018-04-02T22:45:59.207Z,8.80
2018-04-02T22:51:06.863Z,9.20
2018-04-02T22:56:11.668Z,8.80
2018-04-02T23:01:16.535Z,8.40
2018-04-02T23:06:22.189Z,8.30
2018-04-02T23:11:25.505Z,8.40
2018-04-02T23:16:29.220Z,8.40
2018-04-02T23:21:32.892Z,8.60
2018-04-02T23:26:37.802Z,8.60
2018-04-02T23:31:41.071Z,9.00
2018-04-02T23:36:45.003Z,9.40
2018-04-02T23:41:48.291Z,9.40
2018-04-02T23:46:55.959Z,9.50
2018-04-02T23:51:59.317Z,9.60
2018-04-02T23:57:02.973Z,9.70
